createdAt,value
2023-05-15T00:02:23.297Z,12.70
2023-05-15T00:04:50.675Z,12.70
2023-05-15T00:07:17.710Z,12.60
2023-05-15T00:09:44.916Z,12.60
2023-05-15T00:12:11.892Z,12.60
2023-05-15T00:14:38.894Z,12.60
2023-05-15T00:17:06.344Z,12.60
2023-05-15T00:19:33.379Z,12.60
2023-05-15T00:22:00.445Z,12.60
2023-05-15T00:24:27.449Z,12.60
2023-05-15T00:26:54.424Z,12.60
2023-05-15T00:29:21.589Z,12.60
2023-05-15T00:31:48.601Z,12.60
2023-05-15T00:34:15.661Z,12.60
2023-05-15T00:36:42.643Z,12.70
2023-05-15T00:39:09.680Z,12.70
2023-05-15T00:41:37.703Z,12.70
2023-05-15T00:44:06.750Z,12.70
2023-05-15T00:46:36.133Z,12.80
2023-05-15T00:49:07.258Z,12.80
2023-05-15T00:51:35.434Z,12.80
2023-05-15T00:54:03.334Z,12.80
2023-05-15T00:56:32.354Z,12.80
2023-05-15T00:59:01.227Z,12.80
2023-05-15T01:01:33.528Z,12.80
2023-05-15T01:04:02.368Z,12.80
2023-05-15T01:06:30.582Z,12.70
2023-05-15T01:09:02.302Z,12.70
2023-05-15T01:11:36.677Z,12.60
2023-05-15T01:14:05.929Z,12.60
2023-05-15T01:16:34.288Z,12.60
2023-05-15T01:19:01.539Z,12.60
2023-05-15T01:21:37.719Z,12.50
2023-05-15T01:24:16.693Z,12.50
2023-05-15T01:27:17.102Z,12.40
2023-05-15T01:30:28.875Z,12.40
2023-05-15T01:33:10.393Z,12.40
2023-05-15T01:35:57.937Z,12.40
2023-05-15T01:38:30.779Z,12.50
2023-05-15T01:41:03.558Z,12.50
2023-05-15T01:43:33.847Z,12.50
2023-05-15T01:46:01.363Z,12.50
2023-05-15T01:48:31.477Z,12.60
2023-05-15T01:51:03.629Z,12.60
2023-05-15T01:53:35.419Z,12.60
2023-05-15T01:56:04.113Z,12.60
2023-05-15T01:58:32.447Z,12.60
2023-05-15T02:01:01.693Z,12.60
2023-05-15T02:03:30.985Z,12.60
2023-05-15T02:05:58.105Z,12.60
2023-05-15T02:08:29.046Z,12.60
2023-05-15T02:10:59.084Z,12.60
2023-05-15T02:13:26.637Z,12.60
2023-05-15T02:15:53.800Z,12.60
2023-05-15T02:18:21.366Z,12.60
2023-05-15T02:20:48.496Z,12.60
2023-05-15T02:23:15.528Z,12.60
2023-05-15T02:25:52.992Z,12.60
2023-05-15T02:28:28.966Z,12.60
2023-05-15T02:31:00.468Z,12.60
2023-05-15T02:33:34.880Z,12.60
2023-05-15T02:36:11.466Z,12.50
2023-05-15T02:38:46.913Z,12.50
2023-05-15T02:41:16.566Z,12.40
2023-05-15T02:43:44.547Z,12.30
2023-05-15T02:46:15.028Z,12.30
2023-05-15T02:48:43.884Z,12.20
2023-05-15T02:51:11.080Z,12.10
2023-05-15T02:53:42.440Z,12.00
2023-05-15T02:56:09.731Z,12.00
2023-05-15T02:58:37.974Z,12.00
2023-05-15T03:01:05.108Z,11.90
2023-05-15T03:03:32.319Z,11.90
2023-05-15T03:06:01.130Z,11.90
2023-05-15T03:08:28.331Z,11.90
2023-05-15T03:10:55.506Z,11.90
2023-05-15T03:13:22.498Z,11.90
2023-05-15T03:15:49.673Z,11.90
2023-05-15T03:18:19.182Z,11.90
2023-05-15T03:20:49.047Z,11.90
2023-05-15T03:23:16.214Z,11.90
2023-05-15T03:25:43.346Z,11.90
2023-05-15T03:28:10.704Z,11.90
2023-05-15T03:30:37.766Z,11.80
2023-05-15T03:33:05.721Z,11.80
2023-05-15T03:35:32.853Z,11.90
2023-05-15T03:37:59.887Z,11.90
2023-05-15T03:40:26.879Z,11.90
2023-05-15T03:42:53.966Z,11.90
2023-05-15T03:45:21.519Z,11.90
2023-05-15T03:47:48.988Z,12.00
2023-05-15T03:50:16.380Z,12.00
2023-05-15T03:52:43.464Z,12.00
2023-05-15T03:55:10.587Z,12.00
2023-05-15T03:57:37.788Z,12.00
2023-05-15T04:00:10.418Z,12.00
2023-05-15T04:02:38.472Z,12.10
2023-05-15T04:05:07.232Z,12.10
2023-05-15T04:07:35.630Z,12.10
2023-05-15T04:10:03.121Z,12.20
2023-05-15T04:12:32.611Z,12.20
2023-05-15T04:15:13.334Z,12.20
2023-05-15T04:17:40.387Z,12.20
2023-05-15T04:20:09.233Z,12.20
2023-05-15T04:22:36.434Z,12.20
2023-05-15T04:25:04.860Z,12.20
2023-05-15T04:27:31.845Z,12.20
2023-05-15T04:29:58.916Z,12.20
2023-05-15T04:32:25.946Z,12.20
2023-05-15T04:34:53.096Z,12.20
2023-05-15T04:37:20.186Z,12.20
2023-05-15T04:39:47.257Z,12.20
2023-05-15T04:42:14.326Z,12.20
2023-05-15T04:44:41.582Z,12.20
2023-05-15T04:47:08.541Z,12.20
2023-05-15T04:49:35.601Z,12.20
2023-05-15T04:52:02.607Z,12.10
2023-05-15T04:54:29.712Z,12.20
2023-05-15T04:56:56.716Z,12.20
2023-05-15T04:59:25.036Z,12.20
2023-05-15T05:01:52.891Z,12.20
2023-05-15T05:04:20.362Z,12.20
2023-05-15T05:06:47.843Z,12.20
2023-05-15T05:09:14.888Z,12.20
2023-05-15T05:11:45.260Z,12.20
2023-05-15T05:14:13.873Z,12.20
2023-05-15T05:16:41.648Z,12.20
2023-05-15T05:19:08.804Z,12.20
2023-05-15T05:21:35.873Z,12.10
2023-05-15T05:24:02.886Z,12.10
2023-05-15T05:26:29.977Z,12.10
2023-05-15T05:28:57.084Z,12.10
2023-05-15T05:31:24.208Z,12.10
2023-05-15T05:33:52.884Z,12.10
2023-05-15T05:36:19.948Z,12.10
2023-05-15T05:38:46.955Z,12.20
2023-05-15T05:41:13.992Z,12.20
2023-05-15T05:43:42.038Z,12.20
2023-05-15T05:46:09.193Z,12.30
2023-05-15T05:48:36.707Z,12.30
2023-05-15T05:51:03.920Z,12.30
2023-05-15T05:53:30.921Z,12.30
2023-05-15T05:55:58.013Z,12.30
2023-05-15T05:58:26.325Z,12.30
2023-05-15T06:00:54.192Z,12.30
2023-05-15T06:03:21.620Z,12.30
2023-05-15T06:05:48.859Z,12.40
2023-05-15T06:08:17.059Z,12.40
2023-05-15T06:10:44.077Z,12.40
2023-05-15T06:13:11.968Z,12.50
2023-05-15T06:15:39.078Z,12.50
2023-05-15T06:18:06.292Z,12.60
2023-05-15T06:20:33.663Z,12.70
2023-05-15T06:23:00.716Z,12.80
2023-05-15T06:25:27.684Z,12.80
2023-05-15T06:27:55.868Z,12.90
2023-05-15T06:30:23.205Z,12.90
2023-05-15T06:32:50.603Z,12.90
2023-05-15T06:35:17.684Z,12.90
2023-05-15T06:37:44.901Z,12.90
2023-05-15T06:40:12.201Z,12.90
2023-05-15T06:42:39.221Z,12.90
2023-05-15T06:45:07.022Z,12.80
2023-05-15T06:47:34.091Z,12.80
2023-05-15T06:50:01.155Z,12.70
2023-05-15T06:52:28.210Z,12.80
2023-05-15T06:54:55.301Z,12.80
2023-05-15T06:57:22.351Z,12.80
2023-05-15T06:59:49.352Z,12.80
2023-05-15T07:02:16.490Z,12.90
2023-05-15T07:04:43.601Z,13.00
2023-05-15T07:07:10.649Z,13.10
2023-05-15T07:09:37.684Z,13.10
2023-05-15T07:12:05.110Z,13.20
2023-05-15T07:14:32.211Z,13.40
2023-05-15T07:16:59.327Z,13.40
2023-05-15T07:19:26.571Z,13.50
2023-05-15T07:21:53.636Z,13.50
2023-05-15T07:24:20.718Z,13.60
2023-05-15T07:26:58.136Z,13.50
2023-05-15T07:29:26.677Z,13.50
2023-05-15T07:31:54.107Z,13.50
2023-05-15T07:34:21.288Z,13.60
2023-05-15T07:36:48.324Z,13.60
2023-05-15T07:39:16.114Z,13.60
2023-05-15T07:41:43.159Z,13.50
2023-05-15T07:44:10.078Z,13.50
2023-05-15T07:46:39.196Z,13.60
2023-05-15T07:49:06.360Z,13.70
2023-05-15T07:51:33.441Z,13.90
2023-05-15T07:54:00.894Z,14.10
2023-05-15T07:56:28.348Z,14.40
2023-05-15T07:58:55.454Z,14.60
2023-05-15T08:01:22.532Z,14.80
2023-05-15T08:03:49.725Z,14.90
2023-05-15T08:06:16.858Z,14.90
2023-05-15T08:08:43.892Z,14.90
2023-05-15T08:11:10.858Z,14.90
2023-05-15T08:13:37.895Z,15.00
2023-05-15T08:16:05.726Z,15.10
2023-05-15T08:18:32.984Z,15.40
2023-05-15T08:21:00.044Z,15.70
2023-05-15T08:23:27.158Z,15.90
2023-05-15T08:25:54.872Z,16.10
2023-05-15T08:28:21.919Z,16.10
2023-05-15T08:30:49.175Z,16.10
2023-05-15T08:33:16.326Z,15.90
2023-05-15T08:35:44.107Z,16.10
2023-05-15T08:38:11.595Z,16.20
2023-05-15T08:40:41.535Z,16.20
2023-05-15T08:43:16.236Z,16.10
2023-05-15T08:45:44.087Z,16.10
2023-05-15T08:48:14.772Z,16.10
2023-05-15T08:50:43.774Z,16.00
2023-05-15T08:53:14.292Z,15.90
2023-05-15T08:55:42.425Z,15.80
2023-05-15T08:58:10.177Z,15.70
2023-05-15T09:00:37.887Z,15.60
2023-05-15T09:03:05.883Z,15.70
2023-05-15T09:05:33.640Z,15.70
2023-05-15T09:08:04.412Z,15.80
2023-05-15T09:10:33.316Z,15.80
2023-05-15T09:13:02.649Z,15.80
2023-05-15T09:15:30.973Z,15.90
2023-05-15T09:17:59.440Z,15.80
2023-05-15T09:20:38.190Z,15.90
2023-05-15T09:23:21.896Z,16.00
2023-05-15T09:25:53.758Z,16.20
2023-05-15T09:28:34.089Z,16.40
2023-05-15T09:31:04.097Z,16.50
2023-05-15T09:33:36.254Z,16.80
2023-05-15T09:36:05.228Z,16.80
2023-05-15T09:38:58.022Z,16.50
2023-05-15T09:41:26.988Z,16.10
2023-05-15T09:43:57.149Z,15.80
2023-05-15T09:46:24.695Z,15.60
2023-05-15T09:48:55.829Z,15.30
2023-05-15T09:51:23.161Z,15.10
2023-05-15T09:53:58.731Z,15.10
2023-05-15T09:56:26.416Z,15.00
2023-05-15T09:58:58.624Z,15.00
2023-05-15T10:01:27.889Z,15.10
2023-05-15T10:04:03.826Z,15.20
2023-05-15T10:06:40.650Z,15.50
2023-05-15T10:09:11.025Z,15.70
2023-05-15T10:11:40.040Z,15.90
2023-05-15T10:14:09.845Z,16.20
2023-05-15T10:16:38.647Z,16.50
2023-05-15T10:19:08.328Z,16.60
2023-05-15T10:21:40.562Z,16.70
2023-05-15T10:24:08.722Z,16.90
2023-05-15T10:26:40.985Z,17.10
2023-05-15T10:29:13.405Z,17.20
2023-05-15T10:31:41.871Z,17.10
2023-05-15T10:34:11.326Z,16.90
2023-05-15T10:36:38.985Z,16.70
2023-05-15T10:39:07.505Z,16.70
2023-05-15T10:41:37.458Z,16.70
2023-05-15T10:44:05.034Z,16.80
2023-05-15T10:46:35.607Z,16.70
2023-05-15T10:49:03.124Z,16.70
2023-05-15T10:51:37.068Z,16.50
2023-05-15T10:54:04.401Z,16.50
2023-05-15T10:56:37.538Z,16.50
2023-05-15T10:59:09.858Z,16.40
2023-05-15T11:01:39.097Z,16.40
2023-05-15T11:04:14.308Z,16.50
2023-05-15T11:06:46.869Z,16.50
2023-05-15T11:09:22.842Z,16.50
2023-05-15T11:11:53.192Z,16.40
2023-05-15T11:14:20.504Z,16.40
2023-05-15T11:16:53.907Z,16.30
2023-05-15T11:19:31.669Z,16.40
2023-05-15T11:21:59.690Z,16.60
2023-05-15T11:24:50.124Z,17.10
2023-05-15T11:27:25.851Z,17.50
2023-05-15T11:30:23.648Z,17.80
2023-05-15T11:32:56.334Z,18.20
2023-05-15T11:35:34.315Z,18.50
2023-05-15T11:38:10.532Z,18.80
2023-05-15T11:40:57.149Z,19.00
2023-05-15T11:43:29.484Z,19.10
2023-05-15T11:46:08.241Z,19.20
2023-05-15T11:48:48.647Z,19.20
2023-05-15T11:51:22.013Z,19.00
2023-05-15T11:53:54.009Z,19.00
2023-05-15T11:56:28.618Z,19.00
2023-05-15T11:58:57.947Z,18.90
2023-05-15T12:01:25.172Z,18.70
2023-05-15T12:03:55.053Z,18.70
2023-05-15T12:06:23.107Z,18.90
2023-05-15T12:08:53.854Z,19.10
2023-05-15T12:11:25.451Z,19.10
2023-05-15T12:13:56.614Z,19.10
2023-05-15T12:16:26.737Z,18.90
2023-05-15T12:18:54.147Z,18.80
2023-05-15T12:21:21.375Z,18.70
2023-05-15T12:24:06.367Z,18.60
2023-05-15T12:26:36.256Z,18.50
2023-05-15T12:29:04.678Z,18.40
2023-05-15T12:31:34.215Z,18.50
2023-05-15T12:34:01.455Z,18.70
2023-05-15T12:36:31.849Z,18.70
2023-05-15T12:39:04.979Z,18.80
2023-05-15T12:41:32.003Z,18.80
2023-05-15T12:43:59.298Z,18.80
2023-05-15T12:46:32.065Z,19.00
2023-05-15T12:49:00.057Z,19.10
2023-05-15T12:51:27.608Z,19.00
2023-05-15T12:53:57.177Z,19.00
2023-05-15T12:56:24.477Z,19.00
2023-05-15T12:58:54.636Z,18.90
2023-05-15T13:01:22.589Z,19.00
2023-05-15T13:03:50.390Z,19.00
2023-05-15T13:06:17.703Z,19.00
2023-05-15T13:08:45.857Z,19.00
2023-05-15T13:11:14.752Z,19.00
2023-05-15T13:13:46.741Z,18.90
2023-05-15T13:16:25.833Z,18.80
2023-05-15T13:18:53.312Z,18.60
2023-05-15T13:21:20.531Z,18.50
2023-05-15T13:23:47.816Z,18.30
2023-05-15T13:26:15.023Z,18.10
2023-05-15T13:28:42.036Z,18.00
2023-05-15T13:31:09.339Z,17.80
2023-05-15T13:33:36.362Z,17.80
2023-05-15T13:36:03.431Z,17.90
2023-05-15T13:38:31.361Z,18.00
2023-05-15T13:40:59.019Z,18.10
2023-05-15T13:43:26.915Z,18.20
2023-05-15T13:45:54.699Z,18.30
2023-05-15T13:48:22.074Z,18.20
2023-05-15T13:50:49.399Z,18.20
2023-05-15T13:53:17.174Z,18.30
2023-05-15T13:55:46.041Z,18.40
2023-05-15T13:58:13.888Z,18.50
2023-05-15T14:00:43.263Z,18.70
2023-05-15T14:03:12.014Z,18.80
2023-05-15T14:05:41.266Z,19.00
2023-05-15T14:08:08.381Z,19.10
2023-05-15T14:10:37.792Z,19.00
2023-05-15T14:13:05.066Z,19.00
2023-05-15T14:15:32.171Z,19.00
2023-05-15T14:17:59.303Z,19.10
2023-05-15T14:20:26.836Z,19.20
2023-05-15T14:22:54.150Z,19.20
2023-05-15T14:25:21.467Z,19.10
2023-05-15T14:27:48.624Z,18.90
2023-05-15T14:30:15.769Z,18.80
2023-05-15T14:32:42.873Z,18.80
2023-05-15T14:35:10.604Z,18.70
2023-05-15T14:37:38.020Z,18.70
2023-05-15T14:40:05.581Z,18.70
2023-05-15T14:42:32.702Z,18.80
2023-05-15T14:44:59.975Z,18.90
2023-05-15T14:47:28.756Z,18.80
2023-05-15T14:49:56.065Z,18.70
2023-05-15T14:52:23.403Z,18.60
2023-05-15T14:55:00.702Z,18.60
2023-05-15T14:57:34.786Z,18.50
2023-05-15T15:00:01.907Z,18.40
2023-05-15T15:02:29.120Z,18.40
2023-05-15T15:04:56.375Z,18.20
2023-05-15T15:07:27.154Z,18.10
2023-05-15T15:09:54.255Z,18.10
2023-05-15T15:12:21.308Z,18.00
2023-05-15T15:14:48.456Z,17.90
2023-05-15T15:17:15.600Z,17.90
2023-05-15T15:19:42.737Z,18.00
2023-05-15T15:22:09.809Z,18.20
2023-05-15T15:24:36.924Z,18.40
2023-05-15T15:27:03.996Z,18.50
2023-05-15T15:29:31.011Z,18.50
2023-05-15T15:31:58.220Z,18.60
2023-05-15T15:34:25.317Z,18.60
2023-05-15T15:36:52.584Z,18.50
2023-05-15T15:39:19.603Z,18.50
2023-05-15T15:41:46.723Z,18.50
2023-05-15T15:44:13.836Z,18.60
2023-05-15T15:46:41.069Z,18.70
2023-05-15T15:49:08.336Z,18.80
2023-05-15T15:51:35.500Z,18.80
2023-05-15T15:54:02.664Z,18.80
2023-05-15T15:56:29.708Z,18.80
2023-05-15T15:58:56.934Z,18.80
2023-05-15T16:01:24.160Z,18.90
2023-05-15T16:03:51.324Z,18.90
2023-05-15T16:06:18.334Z,18.80
2023-05-15T16:08:45.328Z,18.70
2023-05-15T16:11:12.492Z,18.60
2023-05-15T16:13:40.943Z,18.60
2023-05-15T16:16:08.379Z,18.70
2023-05-15T16:18:35.797Z,18.80
2023-05-15T16:21:02.859Z,18.90
2023-05-15T16:23:35.075Z,19.00
2023-05-15T16:26:03.121Z,19.00
2023-05-15T16:28:30.386Z,19.10
2023-05-15T16:30:59.119Z,19.10
2023-05-15T16:33:26.392Z,19.20
2023-05-15T16:38:20.920Z,19.10
2023-05-15T16:40:48.051Z,19.10
2023-05-15T16:43:15.695Z,19.00
2023-05-15T16:45:44.597Z,19.00
2023-05-15T16:48:11.735Z,19.00
2023-05-15T16:50:38.764Z,19.00
2023-05-15T16:53:06.023Z,19.10
2023-05-15T16:55:33.358Z,19.10
2023-05-15T16:58:00.613Z,19.00
2023-05-15T17:00:28.097Z,19.00
2023-05-15T17:02:55.448Z,19.00
2023-05-15T17:05:22.570Z,19.00
2023-05-15T17:07:49.653Z,18.90
2023-05-15T17:10:16.766Z,19.00
2023-05-15T17:12:44.178Z,18.90
2023-05-15T17:15:14.152Z,18.90
2023-05-15T17:17:41.284Z,18.90
2023-05-15T17:20:09.025Z,18.90
2023-05-15T17:22:36.287Z,18.80
2023-05-15T17:25:04.335Z,18.90
2023-05-15T17:27:31.616Z,18.90
2023-05-15T17:29:58.657Z,18.90
2023-05-15T17:32:26.154Z,18.90
2023-05-15T17:34:53.303Z,18.80
2023-05-15T17:37:20.383Z,18.80
2023-05-15T17:39:47.477Z,18.90
2023-05-15T17:42:14.590Z,18.80
2023-05-15T17:44:41.657Z,18.70
2023-05-15T17:47:10.469Z,18.50
2023-05-15T17:49:38.864Z,18.30
2023-05-15T17:52:07.336Z,18.20
2023-05-15T17:54:34.380Z,18.10
2023-05-15T17:57:01.591Z,17.90
2023-05-15T17:59:31.250Z,17.80
2023-05-15T18:01:58.715Z,17.60
2023-05-15T18:04:26.152Z,17.60
2023-05-15T18:06:53.203Z,17.50
2023-05-15T18:09:24.329Z,17.40
2023-05-15T18:11:52.360Z,17.30
2023-05-15T18:14:19.440Z,17.20
2023-05-15T18:16:46.420Z,17.10
2023-05-15T18:19:13.671Z,17.00
2023-05-15T18:21:41.038Z,16.90
2023-05-15T18:24:08.069Z,16.80
2023-05-15T18:26:35.096Z,16.70
2023-05-15T18:29:02.450Z,16.60
2023-05-15T18:31:29.678Z,16.50
2023-05-15T18:33:56.840Z,16.50
2023-05-15T18:36:23.933Z,16.40
2023-05-15T18:38:51.002Z,16.40
2023-05-15T18:41:18.214Z,16.30
2023-05-15T18:43:45.454Z,16.20
2023-05-15T18:46:12.773Z,16.20
2023-05-15T18:48:40.025Z,16.00
2023-05-15T18:51:07.161Z,16.00
2023-05-15T18:53:34.414Z,15.90
2023-05-15T18:56:01.486Z,15.90
2023-05-15T18:58:28.542Z,15.80
2023-05-15T19:00:56.664Z,15.70
2023-05-15T19:03:26.002Z,15.70
2023-05-15T19:05:53.539Z,15.60
2023-05-15T19:08:20.590Z,15.60
2023-05-15T19:10:51.127Z,15.50
2023-05-15T19:13:19.151Z,15.50
2023-05-15T19:15:53.251Z,15.40
2023-05-15T19:18:20.720Z,15.40
2023-05-15T19:20:52.328Z,15.30
2023-05-15T19:23:21.236Z,15.20
2023-05-15T19:25:48.689Z,15.10
2023-05-15T19:28:16.206Z,15.10
2023-05-15T19:30:43.494Z,15.00
2023-05-15T19:33:13.062Z,14.90
2023-05-15T19:35:40.813Z,14.80
2023-05-15T19:38:08.057Z,14.80
2023-05-15T19:40:36.488Z,14.70
2023-05-15T19:43:03.924Z,14.60
2023-05-15T19:45:30.983Z,14.60
2023-05-15T19:47:59.407Z,14.50
2023-05-15T19:50:26.745Z,14.50
2023-05-15T19:52:54.001Z,14.40
2023-05-15T19:55:21.105Z,14.30
2023-05-15T19:57:48.135Z,14.30
2023-05-15T20:00:15.476Z,14.20
2023-05-15T20:02:42.728Z,14.20
2023-05-15T20:05:10.092Z,14.20
2023-05-15T20:07:38.368Z,14.20
2023-05-15T20:10:06.069Z,14.10
2023-05-15T20:12:33.207Z,14.00
2023-05-15T20:15:00.301Z,14.00
2023-05-15T20:17:27.468Z,13.90
2023-05-15T20:19:54.467Z,13.90
2023-05-15T20:22:21.536Z,13.80
2023-05-15T20:24:50.510Z,13.80
2023-05-15T20:27:18.028Z,13.80
2023-05-15T20:29:45.660Z,13.70
2023-05-15T20:32:13.801Z,13.70
2023-05-15T20:34:42.752Z,13.60
2023-05-15T20:37:09.990Z,13.60
2023-05-15T20:39:37.080Z,13.60
2023-05-15T20:42:04.309Z,13.50
2023-05-15T20:44:31.932Z,13.40
2023-05-15T20:46:59.891Z,13.40
2023-05-15T20:49:26.934Z,13.40
2023-05-15T20:51:53.976Z,13.40
2023-05-15T20:54:21.207Z,13.30
2023-05-15T20:56:48.240Z,13.30
2023-05-15T20:59:15.585Z,13.30
2023-05-15T21:01:42.648Z,13.20
2023-05-15T21:04:09.787Z,13.20
2023-05-15T21:06:36.829Z,13.20
2023-05-15T21:09:03.901Z,13.20
2023-05-15T21:11:30.997Z,13.20
2023-05-15T21:13:57.995Z,13.10
2023-05-15T21:16:25.305Z,13.10
2023-05-15T21:18:52.870Z,13.00
2023-05-15T21:21:21.133Z,13.00
2023-05-15T21:23:48.230Z,13.00
2023-05-15T21:26:15.669Z,12.90
2023-05-15T21:28:42.691Z,12.90
2023-05-15T21:31:10.542Z,12.80
2023-05-15T21:33:38.306Z,12.80
2023-05-15T21:36:05.720Z,12.70
2023-05-15T21:38:33.262Z,12.70
2023-05-15T21:41:01.671Z,12.70
2023-05-15T21:43:28.739Z,12.70
2023-05-15T21:45:56.405Z,12.70
2023-05-15T21:48:23.519Z,12.60
2023-05-15T21:50:50.927Z,12.60
2023-05-15T21:53:17.949Z,12.50
2023-05-15T21:55:45.040Z,12.60
2023-05-15T21:58:12.054Z,12.60
2023-05-15T22:00:40.448Z,12.50
2023-05-15T22:03:07.996Z,12.50
2023-05-15T22:05:35.093Z,12.60
2023-05-15T22:08:02.061Z,12.60
2023-05-15T22:10:29.095Z,12.60
2023-05-15T22:12:56.237Z,12.60
2023-05-15T22:15:23.241Z,12.60
2023-05-15T22:17:50.586Z,12.50
2023-05-15T22:20:19.080Z,12.50
2023-05-15T22:22:46.736Z,12.50
2023-05-15T22:25:13.830Z,12.40
2023-05-15T22:27:41.581Z,12.40
2023-05-15T22:30:09.140Z,12.40
2023-05-15T22:32:36.224Z,12.40
2023-05-15T22:35:03.963Z,12.40
2023-05-15T22:37:31.002Z,12.40
2023-05-15T22:39:58.088Z,12.40
2023-05-15T22:42:25.141Z,12.30
2023-05-15T22:44:54.112Z,12.30
2023-05-15T22:47:21.481Z,12.30
2023-05-15T22:49:48.496Z,12.20
2023-05-15T22:52:15.504Z,12.20
2023-05-15T22:54:42.568Z,12.20
2023-05-15T22:57:09.610Z,12.20
2023-05-15T22:59:37.556Z,12.20
2023-05-15T23:02:04.749Z,12.20
2023-05-15T23:04:31.955Z,12.20
2023-05-15T23:06:58.951Z,12.10
2023-05-15T23:09:26.229Z,12.10
2023-05-15T23:11:53.281Z,12.10
2023-05-15T23:14:20.418Z,12.10
2023-05-15T23:16:47.478Z,12.10
2023-05-15T23:19:14.590Z,12.20
2023-05-15T23:21:41.650Z,12.20
2023-05-15T23:24:08.728Z,12.10
2023-05-15T23:26:35.742Z,12.10
2023-05-15T23:29:02.803Z,12.20
2023-05-15T23:31:29.943Z,12.20
2023-05-15T23:33:56.990Z,12.20
2023-05-15T23:36:24.070Z,12.20
2023-05-15T23:38:51.094Z,12.20
2023-05-15T23:41:18.120Z,12.20
2023-05-15T23:43:45.160Z,12.20
2023-05-15T23:46:12.275Z,12.20
2023-05-15T23:48:39.327Z,12.10
2023-05-15T23:51:06.394Z,12.10
2023-05-15T23:53:33.618Z,12.10
2023-05-15T23:56:00.667Z,12.10
2023-05-15T23:58:27.840Z,12.10
